Time;durP1;ratioP1;P1;durP2;ratioP2;P2;SDS_P1;SDS_P2;PMS_P1;PMS_P2;Temp;Humidity;BMP_temperature;BMP_pressure;BME280_temperature;BME280_humidity;BME280_pressure;Samples;Min_cycle;Max_cycle;Signal;HPM_P1;HPM_P2
2021/03/31 00:00:19;;;;;;;8.13;4.30;;;;;;;10.62;84.44;102052.69;4872755;29;20045;-86
2021/03/31 00:02:45;;;;;;;8.38;3.95;;;;;;;10.59;84.81;102040.66;4877069;29;20064;-86
2021/03/31 00:05:12;;;;;;;7.60;3.58;;;;;;;10.50;85.02;102039.09;4861095;29;20506;-89
2021/03/31 00:07:38;;;;;;;6.95;4.15;;;;;;;10.43;85.22;102036.88;4859868;29;20044;-86
2021/03/31 00:10:32;;;;;;;6.28;3.58;;;;;;;10.25;86.23;102031.81;4862983;29;20044;-87
2021/03/31 00:12:59;;;;;;;8.55;4.22;;;;;;;10.26;86.50;102031.50;4836879;29;20060;-86
2021/03/31 00:15:25;;;;;;;8.18;3.60;;;;;;;10.34;85.99;102036.09;4844096;29;20106;-86
2021/03/31 00:17:51;;;;;;;7.55;3.88;;;;;;;10.05;86.71;102027.84;4830927;29;20197;-86
2021/03/31 00:20:18;;;;;;;10.30;3.95;;;;;;;9.81;87.93;102027.53;4903849;29;20179;-86
2021/03/31 00:22:45;;;;;;;8.18;4.15;;;;;;;9.81;88.42;102027.53;4921599;29;20032;-88
2021/03/31 00:25:13;;;;;;;7.72;4.30;;;;;;;9.84;88.33;102021.50;4921888;29;20067;-86
2021/03/31 00:27:41;;;;;;;11.00;4.25;;;;;;;9.93;87.63;102022.28;4927336;29;20058;-86
2021/03/31 00:30:10;;;;;;;9.95;4.20;;;;;;;9.82;88.50;102008.38;4921074;29;20279;-86
2021/03/31 00:32:36;;;;;;;8.80;4.40;;;;;;;9.80;89.05;102001.72;4896364;29;20039;-88
2021/03/31 00:35:04;;;;;;;8.85;4.18;;;;;;;10.11;87.16;102002.38;4938496;29;20123;-86
2021/03/31 00:37:30;;;;;;;8.45;4.35;;;;;;;9.97;88.05;102001.72;4922944;29;20036;-86
2021/03/31 00:39:57;;;;;;;9.77;4.65;;;;;;;9.67;88.49;101992.72;4902730;29;20027;-87
2021/03/31 00:42:23;;;;;;;13.35;4.82;;;;;;;9.85;88.15;101996.97;4925429;29;20594;-86
2021/03/31 00:44:49;;;;;;;13.43;5.35;;;;;;;9.81;88.73;101996.03;4934497;29;20038;-86
2021/03/31 00:47:16;;;;;;;9.63;5.45;;;;;;;9.75;88.78;101991.13;4924442;29;20220;-88
2021/03/31 00:50:02;;;;;;;15.65;4.93;;;;;;;9.89;87.94;101997.94;4913916;29;20050;-86
2021/03/31 00:52:29;;;;;;;11.02;4.65;;;;;;;9.93;88.01;101992.69;4915125;29;20067;-87
2021/03/31 00:54:55;;;;;;;11.75;5.30;;;;;;;9.91;86.99;101990.31;4899417;29;20080;-86
2021/03/31 00:57:21;;;;;;;11.30;5.30;;;;;;;9.83;87.41;101988.44;4871701;29;20032;-85
2021/03/31 00:59:50;;;;;;;8.73;5.22;;;;;;;9.97;86.71;101985.56;4906298;29;20044;-86
2021/03/31 01:02:17;;;;;;;12.05;5.10;;;;;;;9.78;87.35;101977.84;4900761;29;20040;-86
2021/03/31 01:04:43;;;;;;;8.43;4.68;;;;;;;9.58;88.14;101980.38;4901481;29;20048;-86
2021/03/31 01:07:09;;;;;;;12.85;5.22;;;;;;;9.49;88.98;101982.22;4886378;29;20513;-86
2021/03/31 01:09:36;;;;;;;11.60;5.38;;;;;;;9.50;88.87;101978.44;4895772;29;20092;-86
2021/03/31 01:12:27;;;;;;;9.80;4.40;;;;;;;9.60;88.22;101975.47;4913147;29;20032;-86
2021/03/31 01:15:12;;;;;;;9.25;4.25;;;;;;;9.65;87.79;101964.53;4905167;29;20040;-86
2021/03/31 01:17:43;;;;;;;10.23;4.70;;;;;;;9.53;88.64;101961.66;4899738;29;20130;-86
2021/03/31 01:20:51;;;;;;;7.70;4.60;;;;;;;9.36;89.67;101956.28;4894883;29;20666;-86
2021/03/31 01:24:00;;;;;;;9.48;4.45;;;;;;;9.31;89.89;101949.16;4899746;29;20098;-86
2021/03/31 01:26:37;;;;;;;8.35;4.25;;;;;;;9.38;89.23;101946.81;4909209;29;20430;-85
2021/03/31 01:29:09;;;;;;;8.00;4.68;;;;;;;9.26;90.78;101956.56;4925076;28;20187;-87
2021/03/31 01:31:41;;;;;;;13.48;5.60;;;;;;;9.28;90.50;101933.66;4957612;28;20035;-88
2021/03/31 01:34:30;;;;;;;15.35;5.80;;;;;;;9.30;90.38;101944.09;4962914;28;20409;-87
2021/03/31 01:36:59;;;;;;;10.38;4.97;;;;;;;9.22;90.85;101942.16;4962840;28;20031;-85
2021/03/31 01:39:27;;;;;;;8.77;5.28;;;;;;;9.55;88.82;101948.72;4949427;28;20023;-85
2021/03/31 01:41:58;;;;;;;9.63;5.15;;;;;;;9.43;88.95;101948.53;4949596;28;20103;-85
2021/03/31 01:44:25;;;;;;;;;;;;;;;9.27;89.09;101948.19;4988463;23;20039;-76
2021/03/31 01:46:57;;;;;;;9.98;4.65;;;;;;;9.28;89.33;101944.41;4974517;28;20401;-76
2021/03/31 01:49:25;;;;;;;13.20;4.93;;;;;;;9.23;89.43;101947.25;4972642;28;20093;-76
2021/03/31 01:51:57;;;;;;;8.38;5.00;;;;;;;9.22;89.81;101942.97;4975698;28;20065;-76
2021/03/31 01:54:24;;;;;;;9.35;5.18;;;;;;;9.28;89.01;101949.78;4968023;28;20023;-76
2021/03/31 01:56:51;;;;;;;9.30;4.82;;;;;;;9.30;89.05;101947.56;4973351;28;20508;-76
2021/03/31 01:59:19;;;;;;;7.75;4.60;;;;;;;9.32;87.89;101947.25;4975000;28;20034;-76
2021/03/31 02:01:46;;;;;;;9.73;4.85;;;;;;;9.21;88.18;101944.09;4963724;28;20474;-76
2021/03/31 02:04:14;;;;;;;9.93;5.05;;;;;;;8.78;90.56;101935.91;4967469;28;20034;-76
2021/03/31 02:06:41;;;;;;;10.18;5.03;;;;;;;9.10;89.57;101948.94;4968008;28;20054;-76
2021/03/31 02:09:07;;;;;;;9.45;5.05;;;;;;;9.17;88.97;101942.34;4970762;28;20699;-75
2021/03/31 02:11:33;;;;;;;10.27;5.50;;;;;;;9.06;89.71;101936.44;4970665;28;20431;-75
2021/03/31 02:14:01;;;;;;;9.40;5.15;;;;;;;8.97;89.49;101938.31;4968620;28;20087;-75
2021/03/31 02:16:31;;;;;;;11.80;5.15;;;;;;;8.81;89.61;101932.59;4973608;28;20038;-75
2021/03/31 02:18:57;;;;;;;12.77;5.50;;;;;;;8.92;90.45;101939.25;4972913;28;20026;-75
2021/03/31 02:21:23;;;;;;;10.90;5.35;;;;;;;8.79;90.99;101928.63;4968367;28;20041;-74
2021/03/31 02:23:49;;;;;;;10.85;5.50;;;;;;;9.07;89.96;101933.47;4966089;28;20035;-76
2021/03/31 02:26:16;;;;;;;11.25;5.13;;;;;;;8.68;91.26;101930.81;4967631;28;20252;-76
2021/03/31 02:28:43;;;;;;;11.00;5.00;;;;;;;8.77;91.51;101928.13;4966674;28;20031;-75
2021/03/31 02:31:09;;;;;;;13.85;4.90;;;;;;;8.68;91.14;101930.81;4972937;28;20427;-74
2021/03/31 02:33:36;;;;;;;16.92;5.47;;;;;;;8.63;91.50;101925.56;4974225;28;20081;-75
2021/03/31 02:36:02;;;;;;;10.75;5.20;;;;;;;8.59;92.00;101921.13;4961060;28;20077;-75
2021/03/31 02:38:29;;;;;;;10.18;5.20;;;;;;;8.66;91.83;101926.84;4964003;28;20479;-75
2021/03/31 02:40:55;;;;;;;9.07;5.13;;;;;;;8.71;91.86;101922.13;4972594;28;20403;-75
2021/03/31 02:43:22;;;;;;;10.25;5.22;;;;;;;8.58;91.58;101922.22;4962611;28;20031;-75
2021/03/31 02:45:52;;;;;;;12.18;4.70;;;;;;;8.52;91.98;101924.25;4962431;28;20472;-75
2021/03/31 02:48:19;;;;;;;7.07;4.60;;;;;;;8.68;90.86;101930.00;4972862;28;20062;-75
2021/03/31 02:50:46;;;;;;;10.50;5.30;;;;;;;8.55;91.00;101920.97;4972686;28;20039;-75
2021/03/31 02:53:15;;;;;;;14.30;5.35;;;;;;;8.48;91.18;101925.97;4973280;28;20039;-75
2021/03/31 02:55:40;;;;;;;11.20;4.72;;;;;;;8.48;91.09;101925.97;4973829;28;20089;-75
2021/03/31 02:58:08;;;;;;;11.95;5.00;;;;;;;8.43;91.53;101912.69;4974356;28;20111;-74
2021/03/31 03:00:34;;;;;;;11.07;5.47;;;;;;;8.28;91.88;101906.94;4973275;28;20069;-74
2021/03/31 03:03:01;;;;;;;11.65;5.22;;;;;;;8.16;93.14;101902.09;4973604;28;20035;-74
2021/03/31 03:05:27;;;;;;;13.63;5.00;;;;;;;7.89;94.32;101899.56;4973956;28;20044;-74
2021/03/31 03:07:53;;;;;;;10.93;5.93;;;;;;;8.11;93.85;101900.34;4972646;28;20117;-74
2021/03/31 03:10:18;;;;;;;11.48;5.65;;;;;;;8.10;93.50;101898.75;4968532;28;20029;-75
2021/03/31 03:12:48;;;;;;;10.75;6.00;;;;;;;8.14;93.63;101890.88;4973807;28;20031;-75
2021/03/31 03:15:16;;;;;;;14.75;5.45;;;;;;;8.31;92.76;101890.19;4971347;28;20041;-75
2021/03/31 03:17:42;;;;;;;11.10;5.88;;;;;;;8.41;91.95;101893.44;4954950;28;20042;-75
2021/03/31 03:20:09;;;;;;;15.02;5.85;;;;;;;8.62;91.09;101899.03;4964654;28;20455;-74
2021/03/31 03:22:40;;;;;;;11.90;5.30;;;;;;;8.11;92.17;101888.81;4973738;28;20062;-75
2021/03/31 03:25:09;;;;;;;9.40;5.25;;;;;;;7.86;93.41;101890.25;4972884;28;20035;-75
2021/03/31 03:27:37;;;;;;;10.52;5.65;;;;;;;7.79;94.02;101886.41;4955747;28;20060;-74
2021/03/31 03:30:06;;;;;;;9.45;5.40;;;;;;;7.84;93.97;101880.94;4973103;28;20072;-75
2021/03/31 03:32:34;;;;;;;18.20;6.03;;;;;;;7.98;93.85;101874.38;4967597;28;20038;-75
2021/03/31 03:35:00;;;;;;;11.75;6.25;;;;;;;7.82;93.32;101881.22;4963417;28;20035;-75
2021/03/31 03:37:25;;;;;;;16.20;6.40;;;;;;;8.04;93.35;101885.78;4963429;28;20097;-74
2021/03/31 03:39:51;;;;;;;13.95;7.15;;;;;;;8.21;92.07;101883.19;4964384;28;20050;-75
2021/03/31 03:42:16;;;;;;;18.30;7.10;;;;;;;8.16;92.62;101883.31;4963233;28;20066;-75
2021/03/31 03:44:42;;;;;;;21.25;7.80;;;;;;;8.30;91.84;101880.59;4970207;28;20085;-75
2021/03/31 03:47:08;;;;;;;15.23;7.82;;;;;;;8.35;91.14;101881.25;4973628;28;20163;-74
2021/03/31 03:49:39;;;;;;;15.60;8.75;;;;;;;8.27;91.69;101879.31;4972710;28;20066;-74
2021/03/31 03:52:05;;;;;;;;;;;;;;;8.29;92.88;101866.38;4973302;28;20035;-75
2021/03/31 03:54:31;;;;;;;16.30;8.60;;;;;;;8.29;93.16;101870.94;4972823;28;19918;-75
2021/03/31 03:56:57;;;;;;;21.00;10.00;;;;;;;8.41;92.67;101873.84;4955526;28;20372;-75
2021/03/31 03:59:24;;;;;;;17.98;9.52;;;;;;;8.60;92.76;101872.50;4962516;28;20513;-74
2021/03/31 04:01:51;;;;;;;24.67;11.43;;;;;;;8.83;90.87;101875.88;4967907;28;20030;-75
2021/03/31 04:04:18;;;;;;;19.15;9.32;;;;;;;8.54;91.16;101868.38;4966528;28;20118;-74
2021/03/31 04:06:43;;;;;;;21.00;9.32;;;;;;;8.31;93.23;101868.72;4964965;28;20038;-75
2021/03/31 04:09:09;;;;;;;19.75;10.88;;;;;;;8.40;92.58;101864.97;4967080;28;20027;-74
2021/03/31 04:11:36;;;;;;;20.80;9.77;;;;;;;8.40;92.45;101864.22;4967017;28;20368;-75
2021/03/31 04:14:03;;;;;;;20.13;10.25;;;;;;;8.63;91.18;101868.41;4970992;28;20031;-75
2021/03/31 04:16:33;;;;;;;26.15;11.00;;;;;;;8.44;91.98;101855.22;4969949;28;20054;-75
2021/03/31 04:19:05;;;;;;;23.60;10.70;;;;;;;8.38;91.52;101853.78;4971115;28;20031;-75
2021/03/31 04:21:33;;;;;;;22.73;10.88;;;;;;;8.49;91.40;101851.59;4965959;28;20044;-75
2021/03/31 04:23:59;;;;;;;22.25;11.45;;;;;;;8.46;92.38;101850.34;4972386;28;20050;-75
2021/03/31 04:26:26;;;;;;;21.85;11.70;;;;;;;8.70;91.23;101852.63;4971971;28;20062;-75
2021/03/31 04:28:53;;;;;;;20.35;10.73;;;;;;;8.62;90.92;101853.38;4970591;28;20086;-74
2021/03/31 04:31:23;;;;;;;23.45;11.15;;;;;;;8.51;90.91;101852.09;4966500;28;20053;-75
2021/03/31 04:33:52;;;;;;;18.08;10.40;;;;;;;8.33;91.81;101845.06;4965547;28;20054;-76
2021/03/31 04:36:18;;;;;;;20.63;11.18;;;;;;;8.18;93.55;101847.06;4966993;28;20109;-75
2021/03/31 04:38:46;;;;;;;20.58;11.10;;;;;;;8.25;92.88;101846.63;4969028;28;20069;-75
2021/03/31 04:41:12;;;;;;;22.42;10.85;;;;;;;8.33;92.23;101842.38;4971446;28;20066;-75
2021/03/31 04:43:37;;;;;;;26.55;10.40;;;;;;;8.26;92.36;101840.16;4971814;28;20062;-75
2021/03/31 04:46:04;;;;;;;23.83;11.40;;;;;;;8.06;92.93;101840.66;4969324;28;20042;-75
2021/03/31 04:48:30;;;;;;;26.50;11.45;;;;;;;8.01;93.93;101838.13;4971652;28;20027;-75
2021/03/31 04:50:56;;;;;;;21.33;10.90;;;;;;;8.06;93.99;101846.81;4971249;28;20034;-75
2021/03/31 04:53:21;;;;;;;21.33;11.05;;;;;;;8.14;93.47;101837.22;4965702;28;20069;-76
2021/03/31 04:55:48;;;;;;;21.27;9.85;;;;;;;7.93;93.31;101828.13;4965298;28;20114;-75
2021/03/31 04:58:13;;;;;;;21.85;10.23;;;;;;;7.94;93.74;101835.88;4966636;28;20043;-75
2021/03/31 05:00:39;;;;;;;26.83;11.35;;;;;;;7.95;93.67;101834.00;4966661;28;20026;-75
2021/03/31 05:03:05;;;;;;;20.08;10.40;;;;;;;7.94;94.03;101835.88;4967850;28;20038;-75
2021/03/31 05:05:31;;;;;;;26.55;11.27;;;;;;;7.90;94.42;101845.63;4960633;28;20031;-75
2021/03/31 05:07:56;;;;;;;20.88;10.55;;;;;;;7.75;94.72;101840.66;4971117;28;20030;-75
2021/03/31 05:10:22;;;;;;;20.60;10.15;;;;;;;7.89;93.90;101844.06;4971165;28;20495;-75
2021/03/31 05:12:47;;;;;;;18.67;10.35;;;;;;;7.91;93.99;101841.06;4964486;28;20037;-75
2021/03/31 05:15:33;;;;;;;24.80;10.77;;;;;;;7.92;93.35;101843.44;4967410;28;20039;-75
2021/03/31 05:17:59;;;;;;;16.73;10.02;;;;;;;7.89;95.03;101841.38;4894626;29;20063;-75
2021/03/31 05:20:24;;;;;;;17.65;8.63;;;;;;;7.84;93.96;101841.47;4897241;29;20136;-75
2021/03/31 05:22:50;;;;;;;16.67;8.80;;;;;;;7.76;94.07;101828.03;4896772;29;20049;-75
2021/03/31 05:25:15;;;;;;;16.67;8.00;;;;;;;7.74;94.93;101827.56;4896488;29;20046;-75
2021/03/31 05:27:41;;;;;;;14.70;7.75;;;;;;;7.68;93.83;101828.78;4894155;29;20035;-75
2021/03/31 05:30:08;;;;;;;16.88;8.27;;;;;;;7.73;93.85;101834.00;4896282;29;20075;-75
2021/03/31 05:32:34;;;;;;;16.02;8.40;;;;;;;7.56;94.01;101828.53;4896685;29;20047;-75
2021/03/31 05:35:00;;;;;;;17.05;8.18;;;;;;;7.66;94.57;101818.38;4894962;29;20143;-75
2021/03/31 05:37:27;;;;;;;21.65;8.73;;;;;;;7.60;95.15;101824.16;4893606;29;20096;-75
2021/03/31 05:39:52;;;;;;;14.40;8.13;;;;;;;7.41;95.47;101826.22;4896072;29;20101;-75
2021/03/31 05:42:18;;;;;;;22.48;8.65;;;;;;;7.44;96.01;101820.25;4880821;29;20044;-76
2021/03/31 05:44:44;;;;;;;17.90;8.57;;;;;;;7.83;94.59;101823.03;4896187;29;20116;-76
2021/03/31 05:47:16;;;;;;;18.23;8.43;;;;;;;7.74;94.41;101816.84;4904756;29;20119;-75
2021/03/31 05:49:42;;;;;;;14.20;7.70;;;;;;;7.72;95.60;101819.03;4911960;29;20066;-76
2021/03/31 05:52:09;;;;;;;21.90;8.13;;;;;;;7.82;94.77;101827.59;4895443;29;20064;-76
2021/03/31 05:54:35;;;;;;;21.63;8.75;;;;;;;7.79;95.13;101822.84;4922406;28;20074;-76
2021/03/31 05:57:01;;;;;;;16.02;8.73;;;;;;;7.50;95.60;101824.38;4955767;28;20046;-75
2021/03/31 05:59:26;;;;;;;17.25;8.52;;;;;;;7.81;96.10;101825.22;4964474;28;20042;-76
2021/03/31 06:01:52;;;;;;;16.40;7.75;;;;;;;7.95;94.71;101820.56;4968459;28;20031;-75
2021/03/31 06:04:18;;;;;;;16.98;8.68;;;;;;;8.11;94.49;101822.53;4966262;28;20034;-75
2021/03/31 06:06:43;;;;;;;18.08;8.88;;;;;;;8.25;93.97;101819.00;4966768;28;20126;-75
2021/03/31 06:09:09;;;;;;;19.83;9.23;;;;;;;8.40;93.21;101827.41;4971631;28;20599;-76
2021/03/31 06:11:57;;;;;;;18.65;9.45;;;;;;;8.46;92.04;101828.84;4971371;28;20050;-76
2021/03/31 06:14:36;;;;;;;17.70;8.75;;;;;;;8.53;91.70;101823.84;4967752;28;20035;-75
2021/03/31 06:17:13;;;;;;;17.48;9.00;;;;;;;8.56;92.63;101819.72;4955789;28;20031;-75
2021/03/31 06:19:42;;;;;;;16.92;9.43;;;;;;;8.81;91.77;101813.63;4963274;28;20112;-75
2021/03/31 06:25:08;;;;;;;20.92;10.23;;;;;;;9.05;90.75;101812.09;4971503;28;20039;-75
2021/03/31 06:27:34;;;;;;;22.35;10.35;;;;;;;9.19;90.44;101808.44;4970961;28;20054;-76
2021/03/31 06:30:04;;;;;;;20.08;9.52;;;;;;;9.10;91.25;101813.81;4971519;28;20472;-75
2021/03/31 06:32:36;;;;;;;19.77;9.77;;;;;;;9.22;91.12;101813.97;4971850;28;20562;-75
2021/03/31 06:35:02;;;;;;;20.63;10.45;;;;;;;9.34;91.34;101810.66;4952844;28;20043;-75
2021/03/31 06:37:29;;;;;;;20.33;10.88;;;;;;;9.53;90.59;101806.50;4973836;28;20633;-76
2021/03/31 06:39:55;;;;;;;22.58;10.68;;;;;;;9.81;89.51;101813.09;4961579;28;20499;-76
2021/03/31 06:42:38;;;;;;;23.25;11.70;;;;;;;9.74;89.08;101809.31;4972864;28;20503;-76
2021/03/31 06:45:15;;;;;;;22.35;11.57;;;;;;;9.86;89.29;101807.56;4973481;28;20125;-75
2021/03/31 06:48:00;;;;;;;21.92;11.77;;;;;;;10.08;89.42;101806.53;4964561;28;20168;-76
2021/03/31 06:50:25;;;;;;;18.67;10.95;;;;;;;10.25;87.25;101811.09;4941492;29;20523;-75
2021/03/31 06:52:59;;;;;;;25.75;11.63;;;;;;;10.68;85.95;101803.56;4965815;28;20015;-77
2021/03/31 06:55:26;;;;;;;19.65;10.43;;;;;;;10.75;83.62;101798.44;4973257;28;20035;-75
2021/03/31 06:57:53;;;;;;;23.13;11.20;;;;;;;10.87;84.40;101796.63;4963082;28;20027;-76
2021/03/31 07:00:35;;;;;;;20.20;10.25;;;;;;;11.41;81.67;101794.75;4966054;28;20031;-76
2021/03/31 07:03:06;;;;;;;28.23;10.20;;;;;;;11.78;80.59;101795.66;4960221;28;20122;-76
2021/03/31 07:05:36;;;;;;;17.92;9.77;;;;;;;12.13;80.50;101802.25;4952569;28;20039;-76
2021/03/31 07:08:07;;;;;;;21.88;10.43;;;;;;;12.44;79.20;101799.00;4958423;28;20093;-76
2021/03/31 07:10:53;;;;;;;20.67;9.98;;;;;;;12.95;71.87;101790.09;4968490;28;20027;-76
2021/03/31 07:13:35;;;;;;;22.10;11.82;;;;;;;13.28;67.64;101795.31;4966426;28;20037;-76
2021/03/31 07:16:03;;;;;;;24.98;11.73;;;;;;;13.70;66.29;101785.66;4944025;28;20043;-76
2021/03/31 07:18:31;;;;;;;24.75;12.02;;;;;;;13.98;65.77;101778.25;4960356;28;20042;-74
2021/03/31 07:20:57;;;;;;;25.05;11.55;;;;;;;14.14;61.20;101786.38;4970234;28;20031;-74
2021/03/31 07:23:25;;;;;;;23.45;12.68;;;;;;;14.09;57.63;101770.38;4969569;28;20041;-73
2021/03/31 07:25:52;;;;;;;26.50;12.48;;;;;;;14.50;57.86;101771.75;4967892;28;20037;-74
2021/03/31 07:28:26;;;;;;;26.17;12.10;;;;;;;14.76;62.34;101774.66;4964791;28;20443;-73
2021/03/31 07:30:52;;;;;;;24.65;12.25;;;;;;;14.95;60.44;101772.75;4967343;28;20041;-75
2021/03/31 07:33:26;;;;;;;25.00;12.05;;;;;;;15.29;59.38;101773.81;4969160;28;20089;-75
2021/03/31 07:35:53;;;;;;;23.42;11.63;;;;;;;15.56;59.56;101774.72;4953808;28;20058;-75
2021/03/31 07:38:25;;;;;;;23.40;12.55;;;;;;;15.60;59.51;101770.16;4966991;28;20054;-74
2021/03/31 07:40:51;;;;;;;24.58;13.05;;;;;;;15.71;54.61;101771.13;4964491;28;20041;-73
2021/03/31 07:43:22;;;;;;;27.65;13.85;;;;;;;15.57;54.10;101777.06;4968255;28;20058;-74
2021/03/31 07:46:08;;;;;;;23.55;13.48;;;;;;;16.06;55.70;101769.00;4975714;23;20105;-75
2021/03/31 07:48:36;;;;;;;29.17;14.38;;;;;;;16.25;53.52;101758.81;4969314;28;20030;-74
2021/03/31 07:51:28;;;;;;;27.33;13.48;;;;;;;16.95;48.99;101780.81;4952801;28;20114;-72
2021/03/31 07:53:56;;;;;;;25.83;12.73;;;;;;;17.10;49.18;101768.94;4963741;28;20030;-72
2021/03/31 07:56:27;;;;;;;27.08;13.98;;;;;;;17.03;48.42;101770.78;4968527;28;20078;-72
2021/03/31 07:59:04;;;;;;;30.65;14.13;;;;;;;17.16;48.73;101772.09;4969709;28;20130;-73
2021/03/31 08:01:54;;;;;;;24.88;12.73;;;;;;;17.17;49.35;101763.56;4948251;28;20114;-72
2021/03/31 08:04:25;;;;;;;28.60;12.98;;;;;;;17.31;47.84;101760.22;4967712;28;20499;-72
2021/03/31 08:06:51;;;;;;;33.80;13.20;;;;;;;17.60;48.35;101755.88;4969625;28;20509;-73
2021/03/31 08:09:23;;;;;;;30.25;13.52;;;;;;;17.68;47.17;101760.22;4969242;28;20499;-74
2021/03/31 08:11:59;;;;;;;24.70;12.43;;;;;;;17.88;49.01;101759.66;4970583;28;20026;-74
2021/03/31 08:14:30;;;;;;;27.70;13.07;;;;;;;18.50;47.85;101757.00;4968004;28;20058;-74
2021/03/31 08:16:59;;;;;;;26.08;12.52;;;;;;;18.52;48.55;101744.53;4969646;28;20037;-74
2021/03/31 08:19:31;;;;;;;31.60;12.82;;;;;;;18.61;45.36;101747.69;4952483;28;20031;-73
2021/03/31 08:21:59;;;;;;;26.80;13.57;;;;;;;18.55;44.68;101743.75;4969776;28;20038;-74
2021/03/31 08:24:55;;;;;;;28.00;14.15;;;;;;;18.45;43.87;101740.97;4967947;28;20031;-74
2021/03/31 08:27:21;;;;;;;28.17;14.18;;;;;;;18.59;43.33;101743.78;4955651;28;20038;-73
2021/03/31 08:29:52;;;;;;;33.45;14.57;;;;;;;18.52;43.21;101730.09;4958849;28;20516;-73
2021/03/31 08:32:19;;;;;;;26.83;13.25;;;;;;;19.18;44.17;101732.28;4968938;28;20035;-74
2021/03/31 08:34:45;;;;;;;25.92;13.32;;;;;;;19.77;44.34;101734.38;4969728;28;20030;-74
2021/03/31 08:37:20;;;;;;;26.83;13.80;;;;;;;20.06;41.26;101737.88;4972108;28;20058;-74
2021/03/31 08:39:45;;;;;;;27.73;13.73;;;;;;;19.69;41.85;101721.88;4966787;28;20035;-73
2021/03/31 08:42:11;;;;;;;28.35;13.75;;;;;;;19.37;40.94;101728.47;4969751;28;20034;-73
2021/03/31 08:44:39;;;;;;;25.30;13.40;;;;;;;19.99;40.29;101720.69;4952453;28;20038;-74
2021/03/31 08:47:22;;;;;;;30.65;13.93;;;;;;;20.24;43.15;101724.22;4952638;28;20479;-74
2021/03/31 08:49:50;;;;;;;28.25;13.75;;;;;;;20.41;39.57;101723.38;4966658;28;20035;-73
2021/03/31 08:52:20;;;;;;;26.20;13.55;;;;;;;20.15;38.53;101715.59;4970879;28;20050;-74
2021/03/31 08:54:53;;;;;;;25.52;13.05;;;;;;;20.24;39.85;101716.78;4967385;28;20077;-73
2021/03/31 08:57:22;;;;;;;28.83;12.32;;;;;;;20.94;38.59;101714.97;4971765;28;20026;-73
2021/03/31 08:59:50;;;;;;;23.98;12.00;;;;;;;21.67;39.05;101705.50;4956574;28;20562;-73
2021/03/31 09:02:31;;;;;;;26.30;12.25;;;;;;;21.92;37.74;101708.84;4971735;28;20391;-74
2021/03/31 09:04:58;;;;;;;29.45;12.02;;;;;;;22.02;36.83;101701.69;4969526;28;20488;-74
2021/03/31 09:07:25;;;;;;;26.15;12.13;;;;;;;22.41;37.25;101704.81;4967131;28;20026;-74
2021/03/31 09:09:51;;;;;;;26.52;12.68;;;;;;;22.21;34.71;101704.63;4968146;28;20041;-73
2021/03/31 09:12:19;;;;;;;24.75;11.93;;;;;;;22.04;36.49;101702.06;4961623;28;20046;-73
2021/03/31 09:14:47;;;;;;;23.13;11.57;;;;;;;22.17;36.34;101692.13;4950125;28;20039;-73
2021/03/31 09:17:21;;;;;;;22.20;11.82;;;;;;;22.08;35.84;101695.38;4970262;28;20035;-73
2021/03/31 09:19:50;;;;;;;22.05;10.77;;;;;;;21.94;34.57;101692.75;4958764;28;20031;-73
2021/03/31 09:22:18;;;;;;;26.13;11.98;;;;;;;21.73;34.51;101681.94;4968490;28;20395;-73
2021/03/31 09:24:49;;;;;;;24.25;11.63;;;;;;;21.94;34.74;101683.75;4968478;28;20035;-74
2021/03/31 09:27:20;;;;;;;28.02;11.10;;;;;;;22.71;35.25;101679.34;4967449;28;20038;-74
2021/03/31 09:29:47;;;;;;;26.35;11.32;;;;;;;22.37;33.51;101673.88;4966974;28;20542;-74
2021/03/31 09:32:16;;;;;;;23.60;10.95;;;;;;;22.78;32.77;101682.81;4964491;28;20126;-73
2021/03/31 09:34:42;;;;;;;24.00;10.82;;;;;;;22.15;33.83;101680.78;4968086;28;20046;-73
2021/03/31 09:37:21;;;;;;;22.30;10.77;;;;;;;22.32;33.49;101668.81;4968067;28;20035;-73
2021/03/31 09:39:53;;;;;;;25.23;10.07;;;;;;;23.30;34.33;101670.28;4968500;28;20058;-73
2021/03/31 09:42:34;;;;;;;25.80;9.73;;;;;;;23.09;32.94;101673.31;4968514;28;20069;-74
2021/03/31 09:45:00;;;;;;;27.17;10.75;;;;;;;22.93;32.77;101664.94;4966624;28;20487;-74
2021/03/31 09:47:31;;;;;;;23.75;10.48;;;;;;;23.75;33.08;101661.72;4968930;28;20023;-74
2021/03/31 09:49:57;;;;;;;23.10;9.98;;;;;;;24.45;32.56;101665.13;4952142;28;20084;-74
2021/03/31 09:52:31;;;;;;;23.02;10.18;;;;;;;23.49;33.24;101657.81;4963303;28;20027;-74
2021/03/31 09:55:10;;;;;;;23.95;10.50;;;;;;;23.65;34.42;101654.41;4962749;28;20097;-74
2021/03/31 09:57:38;;;;;;;25.95;11.13;;;;;;;24.44;32.42;101653.31;4962160;28;20476;-74
2021/03/31 10:00:09;;;;;;;20.85;9.93;;;;;;;24.47;34.08;101646.16;4962581;28;20089;-74
2021/03/31 10:02:39;;;;;;;21.60;10.80;;;;;;;24.52;33.61;101646.47;4965722;28;20122;-74
2021/03/31 10:05:09;;;;;;;23.13;10.75;;;;;;;24.88;32.11;101649.22;4972341;28;20041;-74
2021/03/31 10:07:34;;;;;;;21.17;10.27;;;;;;;24.14;33.36;101650.75;4969132;28;20089;-74
2021/03/31 10:10:00;;;;;;;23.27;10.25;;;;;;;24.63;33.50;101644.25;4973070;28;20035;-74
2021/03/31 10:12:31;;;;;;;23.98;11.77;;;;;;;24.34;33.97;101637.78;4971616;28;20113;-74
2021/03/31 10:14:58;;;;;;;26.02;10.55;;;;;;;24.94;34.29;101631.75;4956540;28;20086;-74
2021/03/31 10:17:26;;;;;;;19.95;10.18;;;;;;;25.37;33.31;101639.81;4946836;28;20059;-74
2021/03/31 10:19:52;;;;;;;22.67;10.35;;;;;;;25.89;33.87;101623.09;4969864;28;20570;-74
2021/03/31 10:22:19;;;;;;;25.20;10.98;;;;;;;25.26;33.31;101644.03;4965580;28;20223;-74
2021/03/31 10:24:49;;;;;;;25.10;11.40;;;;;;;25.43;33.46;101616.03;4970113;28;20399;-74
2021/03/31 10:27:17;;;;;;;26.45;11.25;;;;;;;25.26;34.59;101624.72;4966758;28;20026;-74
2021/03/31 10:29:48;;;;;;;19.48;10.25;;;;;;;25.70;34.02;101618.47;4968904;28;20053;-74
2021/03/31 10:32:16;;;;;;;21.02;10.82;;;;;;;25.77;32.97;101621.81;4968552;28;20026;-74
2021/03/31 10:34:44;;;;;;;23.27;11.32;;;;;;;26.31;33.94;101607.31;4966599;28;20626;-74
2021/03/31 10:51:27;;;;;;;22.52;11.15;;;;;;;26.17;33.30;101589.16;4970911;28;20116;-74
2021/03/31 10:53:51;;;;;;;23.63;12.05;;;;;;;25.94;33.15;101590.19;4970284;28;20077;-75
2021/03/31 10:56:17;;;;;;;24.13;10.85;;;;;;;25.63;34.48;101582.75;4950937;28;20166;-74
2021/03/31 10:58:42;;;;;;;20.48;10.88;;;;;;;26.43;33.37;101576.94;4970905;28;20507;-74
2021/03/31 11:01:09;;;;;;;20.05;10.38;;;;;;;26.51;32.77;101575.53;4969225;28;20034;-74
2021/03/31 11:03:35;;;;;;;21.23;10.07;;;;;;;26.78;32.86;101581.41;4954090;28;20056;-74
2021/03/31 11:06:00;;;;;;;20.48;10.27;;;;;;;26.42;31.82;101567.09;4966424;28;20362;-74
2021/03/31 11:08:31;;;;;;;22.30;10.23;;;;;;;27.16;32.34;101564.00;4969774;28;20031;-74
2021/03/31 11:10:57;;;;;;;25.00;10.20;;;;;;;27.11;31.82;101559.00;4969095;28;20399;-74
2021/03/31 11:13:23;;;;;;;22.42;11.00;;;;;;;26.77;32.45;101568.03;4951793;28;20109;-74
2021/03/31 11:15:49;;;;;;;18.10;9.98;;;;;;;27.16;32.71;101564.00;4953462;28;20095;-74
2021/03/31 11:18:27;;;;;;;18.95;10.23;;;;;;;27.07;31.45;101558.34;4970187;28;20022;-74
2021/03/31 11:21:06;;;;;;;23.05;10.70;;;;;;;26.26;32.41;101556.16;4970353;28;20435;-74
2021/03/31 11:26:15;;;;;;;22.83;11.48;;;;;;;26.44;33.68;101545.31;4968590;28;20050;-74
2021/03/31 11:28:42;;;;;;;23.70;10.93;;;;;;;27.18;32.50;101551.25;4954099;28;20082;-75
2021/03/31 11:31:11;;;;;;;24.95;11.70;;;;;;;27.39;32.13;101544.25;4969699;28;20027;-74
2021/03/31 11:33:37;;;;;;;21.17;11.27;;;;;;;26.98;32.60;101544.44;4967298;28;20031;-74
2021/03/31 11:36:04;;;;;;;24.17;11.52;;;;;;;26.57;33.86;101534.28;4970702;28;20118;-74
2021/03/31 11:38:29;;;;;;;20.70;11.00;;;;;;;27.00;32.46;101530.94;4953025;28;20031;-74
2021/03/31 11:40:55;;;;;;;20.38;11.52;;;;;;;27.18;32.64;101531.88;4968965;28;20089;-74
2021/03/31 11:43:20;;;;;;;25.90;12.02;;;;;;;27.05;31.79;101528.38;4952742;28;20050;-74
2021/03/31 11:45:49;;;;;;;23.58;10.75;;;;;;;27.27;32.48;101529.22;4969297;28;20105;-73
2021/03/31 11:48:15;;;;;;;22.00;11.40;;;;;;;27.56;32.73;101526.25;4968001;28;20501;-73